Аэропорт: Николаев. Николаев

ICAO: UKON

METAR:
2019/05/25 12:00
UKON 251200Z 15003MPS 9999 VCTS SCT///CB 16/16 Q1006 NOSIG
METAR:
2018/11/06 15:06
TAF 
      AMD TAF 
      AMD UKON 061502Z 0615/0724 CNL